sensor_id;sensor_type;location;lat;lon;timestamp;pressure;altitude;pressure_sealevel;temperature;humidity
5053;BME280;2545;50.892;5.740;2023-05-17T00:01:13;56176.78;;;-142.21;100.00
5053;BME280;2545;50.892;5.740;2023-05-17T00:03:39;56208.16;;;-142.21;100.00
5053;BME280;2545;50.892;5.740;2023-05-17T00:06:04;56214.06;;;-142.21;100.00
5053;BME280;2545;50.892;5.740;2023-05-17T00:08:29;56210.13;;;-142.21;100.00
5053;BME280;2545;50.892;5.740;2023-05-17T00:10:55;56229.75;;;-142.21;100.00
5053;BME280;2545;50.892;5.740;2023-05-17T00:13:21;56245.44;;;-142.21;100.00
5053;BME280;2545;50.892;5.740;2023-05-17T00:15:46;56178.75;;;-142.21;100.00
5053;BME280;2545;50.892;5.740;2023-05-17T00:18:12;56235.63;;;-142.21;100.00
5053;BME280;2545;50.892;5.740;2023-05-17T00:20:37;56149.34;;;-142.21;100.00
5053;BME280;2545;50.892;5.740;2023-05-17T00:23:02;56216.00;;;-142.21;100.00
5053;BME280;2545;50.892;5.740;2023-05-17T00:25:28;56219.94;;;-142.21;100.00
5053;BME280;2545;50.892;5.740;2023-05-17T00:27:54;56180.72;;;-142.21;100.00
5053;BME280;2545;50.892;5.740;2023-05-17T00:30:19;56206.22;;;-142.21;100.00
5053;BME280;2545;50.892;5.740;2023-05-17T00:32:44;56182.69;;;-142.21;100.00
5053;BME280;2545;50.892;5.740;2023-05-17T00:35:11;56210.13;;;-142.21;100.00
5053;BME280;2545;50.892;5.740;2023-05-17T00:37:36;56217.97;;;-142.21;100.00
5053;BME280;2545;50.892;5.740;2023-05-17T00:40:03;56176.78;;;-142.21;100.00
5053;BME280;2545;50.892;5.740;2023-05-17T00:42:29;56198.38;;;-142.21;100.00
5053;BME280;2545;50.892;5.740;2023-05-17T00:44:55;56214.06;;;-142.21;100.00
5053;BME280;2545;50.892;5.740;2023-05-17T00:47:20;56202.28;;;-142.21;100.00
5053;BME280;2545;50.892;5.740;2023-05-17T00:49:46;56204.25;;;-142.21;100.00
5053;BME280;2545;50.892;5.740;2023-05-17T00:52:11;56202.28;;;-142.21;100.00
5053;BME280;2545;50.892;5.740;2023-05-17T00:54:37;56163.06;;;-142.21;100.00
5053;BME280;2545;50.892;5.740;2023-05-17T00:57:04;56182.69;;;-142.21;100.00
5053;BME280;2545;50.892;5.740;2023-05-17T00:59:30;56210.13;;;-142.21;100.00
5053;BME280;2545;50.892;5.740;2023-05-17T01:01:56;56216.00;;;-142.21;100.00
5053;BME280;2545;50.892;5.740;2023-05-17T01:04:23;56188.56;;;-142.21;100.00
5053;BME280;2545;50.892;5.740;2023-05-17T01:06:48;56212.09;;;-142.21;100.00
5053;BME280;2545;50.892;5.740;2023-05-17T01:09:15;56231.72;;;-142.21;100.00
5053;BME280;2545;50.892;5.740;2023-05-17T01:11:53;56192.50;;;-142.21;100.00
5053;BME280;2545;50.892;5.740;2023-05-17T01:17:00;56190.53;;;-142.21;100.00
5053;BME280;2545;50.892;5.740;2023-05-17T01:22:29;56198.38;;;-142.21;100.00
5053;BME280;2545;50.892;5.740;2023-05-17T01:25:00;56208.16;;;-142.21;100.00
5053;BME280;2545;50.892;5.740;2023-05-17T01:27:29;56249.34;;;-142.21;100.00
5053;BME280;2545;50.892;5.740;2023-05-17T01:29:55;56200.34;;;-142.21;100.00
5053;BME280;2545;50.892;5.740;2023-05-17T01:32:23;56208.16;;;-142.21;100.00
5053;BME280;2545;50.892;5.740;2023-05-17T01:34:49;56225.81;;;-142.21;100.00
5053;BME280;2545;50.892;5.740;2023-05-17T01:37:15;56196.41;;;-142.21;100.00
5053;BME280;2545;50.892;5.740;2023-05-17T01:39:40;56182.69;;;-142.21;100.00
5053;BME280;2545;50.892;5.740;2023-05-17T01:42:31;56225.81;;;-142.21;100.00
5053;BME280;2545;50.892;5.740;2023-05-17T01:45:11;56212.09;;;-142.21;100.00
5053;BME280;2545;50.892;5.740;2023-05-17T01:47:49;56198.38;;;-142.21;100.00
5053;BME280;2545;50.892;5.740;2023-05-17T01:50:23;56217.97;;;-142.21;100.00
5053;BME280;2545;50.892;5.740;2023-05-17T01:52:55;56225.81;;;-142.21;100.00
5053;BME280;2545;50.892;5.740;2023-05-17T01:55:27;56174.84;;;-142.21;100.00
5053;BME280;2545;50.892;5.740;2023-05-17T01:57:56;56198.38;;;-142.21;100.00
5053;BME280;2545;50.892;5.740;2023-05-17T02:00:24;56194.44;;;-142.21;100.00
5053;BME280;2545;50.892;5.740;2023-05-17T02:02:49;56161.13;;;-142.21;100.00
5053;BME280;2545;50.892;5.740;2023-05-17T02:05:15;56188.56;;;-142.21;100.00
5053;BME280;2545;50.892;5.740;2023-05-17T02:07:40;56186.59;;;-142.21;100.00
5053;BME280;2545;50.892;5.740;2023-05-17T02:10:06;56202.28;;;-142.21;100.00
5053;BME280;2545;50.892;5.740;2023-05-17T02:12:32;56178.75;;;-142.21;100.00
5053;BME280;2545;50.892;5.740;2023-05-17T02:14:57;56208.16;;;-142.21;100.00
5053;BME280;2545;50.892;5.740;2023-05-17T02:17:22;56194.44;;;-142.21;100.00
5053;BME280;2545;50.892;5.740;2023-05-17T02:19:48;56227.78;;;-142.21;100.00
5053;BME280;2545;50.892;5.740;2023-05-17T02:22:13;56214.06;;;-142.21;100.00
5053;BME280;2545;50.892;5.740;2023-05-17T02:24:39;56194.44;;;-142.21;100.00
5053;BME280;2545;50.892;5.740;2023-05-17T02:27:04;56200.34;;;-142.21;100.00
5053;BME280;2545;50.892;5.740;2023-05-17T02:29:29;56233.66;;;-142.21;100.00
5053;BME280;2545;50.892;5.740;2023-05-17T02:31:55;56202.28;;;-142.21;100.00
5053;BME280;2545;50.892;5.740;2023-05-17T02:34:21;56194.44;;;-142.21;100.00
5053;BME280;2545;50.892;5.740;2023-05-17T02:36:46;56257.19;;;-142.21;100.00
5053;BME280;2545;50.892;5.740;2023-05-17T02:39:12;56180.72;;;-142.21;100.00
5053;BME280;2545;50.892;5.740;2023-05-17T02:41:38;56170.91;;;-142.21;100.00
5053;BME280;2545;50.892;5.740;2023-05-17T02:44:03;56192.50;;;-142.21;100.00
5053;BME280;2545;50.892;5.740;2023-05-17T02:46:29;56188.56;;;-142.21;100.00
5053;BME280;2545;50.892;5.740;2023-05-17T02:48:54;56194.44;;;-142.21;100.00
5053;BME280;2545;50.892;5.740;2023-05-17T02:51:20;56227.78;;;-142.21;100.00
5053;BME280;2545;50.892;5.740;2023-05-17T02:53:45;56204.25;;;-142.21;100.00
5053;BME280;2545;50.892;5.740;2023-05-17T02:56:10;56198.38;;;-142.21;100.00
5053;BME280;2545;50.892;5.740;2023-05-17T02:58:36;56163.06;;;-142.21;100.00
5053;BME280;2545;50.892;5.740;2023-05-17T03:01:01;56231.72;;;-142.21;100.00
5053;BME280;2545;50.892;5.740;2023-05-17T03:03:26;56202.28;;;-142.21;100.00
5053;BME280;2545;50.892;5.740;2023-05-17T03:05:52;56233.66;;;-142.21;100.00
5053;BME280;2545;50.892;5.740;2023-05-17T03:08:17;56198.38;;;-142.21;100.00
5053;BME280;2545;50.892;5.740;2023-05-17T03:10:42;56233.66;;;-142.21;100.00
5053;BME280;2545;50.892;5.740;2023-05-17T03:13:08;56237.59;;;-142.21;100.00
5053;BME280;2545;50.892;5.740;2023-05-17T03:15:34;56206.22;;;-142.21;100.00
5053;BME280;2545;50.892;5.740;2023-05-17T03:17:59;56200.34;;;-142.21;100.00
5053;BME280;2545;50.892;5.740;2023-05-17T03:20:25;56202.28;;;-142.21;100.00
5053;BME280;2545;50.892;5.740;2023-05-17T03:22:50;56225.81;;;-142.21;100.00
5053;BME280;2545;50.892;5.740;2023-05-17T03:25:15;56217.97;;;-142.21;100.00
5053;BME280;2545;50.892;5.740;2023-05-17T03:27:41;56161.13;;;-142.21;100.00
5053;BME280;2545;50.892;5.740;2023-05-17T03:30:07;56196.41;;;-142.21;100.00
5053;BME280;2545;50.892;5.740;2023-05-17T03:32:32;56216.00;;;-142.21;100.00
5053;BME280;2545;50.892;5.740;2023-05-17T03:34:57;56198.38;;;-142.21;100.00
5053;BME280;2545;50.892;5.740;2023-05-17T03:37:23;56216.00;;;-142.21;100.00
5053;BME280;2545;50.892;5.740;2023-05-17T03:39:48;56212.09;;;-142.21;100.00
5053;BME280;2545;50.892;5.740;2023-05-17T03:42:13;56214.06;;;-142.21;100.00
5053;BME280;2545;50.892;5.740;2023-05-17T03:44:40;56214.06;;;-142.21;100.00
5053;BME280;2545;50.892;5.740;2023-05-17T03:47:05;56214.06;;;-142.21;100.00
5053;BME280;2545;50.892;5.740;2023-05-17T03:49:31;56182.69;;;-142.21;100.00
5053;BME280;2545;50.892;5.740;2023-05-17T03:51:56;56194.44;;;-142.21;100.00
5053;BME280;2545;50.892;5.740;2023-05-17T03:54:22;56212.09;;;-142.21;100.00
5053;BME280;2545;50.892;5.740;2023-05-17T03:56:47;56194.44;;;-142.21;100.00
5053;BME280;2545;50.892;5.740;2023-05-17T03:59:14;56214.06;;;-142.21;100.00
5053;BME280;2545;50.892;5.740;2023-05-17T04:01:39;56219.94;;;-142.21;100.00
5053;BME280;2545;50.892;5.740;2023-05-17T04:04:05;56227.78;;;-142.21;100.00
5053;BME280;2545;50.892;5.740;2023-05-17T04:06:31;56174.84;;;-142.21;100.00
5053;BME280;2545;50.892;5.740;2023-05-17T04:08:56;56229.75;;;-142.21;100.00
5053;BME280;2545;50.892;5.740;2023-05-17T04:11:24;56225.81;;;-142.21;100.00
5053;BME280;2545;50.892;5.740;2023-05-17T04:13:51;56233.66;;;-142.21;100.00
5053;BME280;2545;50.892;5.740;2023-05-17T04:16:16;56202.28;;;-142.21;100.00
5053;BME280;2545;50.892;5.740;2023-05-17T04:18:41;56225.81;;;-142.21;100.00
5053;BME280;2545;50.892;5.740;2023-05-17T04:21:07;56216.00;;;-142.21;100.00
5053;BME280;2545;50.892;5.740;2023-05-17T04:23:32;56176.78;;;-142.21;100.00
5053;BME280;2545;50.892;5.740;2023-05-17T04:25:58;56186.59;;;-142.21;100.00
5053;BME280;2545;50.892;5.740;2023-05-17T04:28:24;56200.34;;;-142.21;100.00
5053;BME280;2545;50.892;5.740;2023-05-17T04:30:50;56257.19;;;-142.21;100.00
5053;BME280;2545;50.892;5.740;2023-05-17T04:33:16;56216.00;;;-142.21;100.00
5053;BME280;2545;50.892;5.740;2023-05-17T04:35:42;56233.66;;;-142.21;100.00
5053;BME280;2545;50.892;5.740;2023-05-17T04:38:08;56216.00;;;-142.21;100.00
5053;BME280;2545;50.892;5.740;2023-05-17T04:40:33;56229.75;;;-142.21;100.00
5053;BME280;2545;50.892;5.740;2023-05-17T04:42:59;56212.09;;;-142.21;100.00
5053;BME280;2545;50.892;5.740;2023-05-17T04:45:25;56245.44;;;-142.21;100.00
5053;BME280;2545;50.892;5.740;2023-05-17T04:47:50;56217.97;;;-142.21;100.00
5053;BME280;2545;50.892;5.740;2023-05-17T04:50:17;56229.75;;;-142.21;100.00
5053;BME280;2545;50.892;5.740;2023-05-17T04:52:44;56210.13;;;-142.21;100.00
5053;BME280;2545;50.892;5.740;2023-05-17T04:55:09;56206.22;;;-142.21;100.00
5053;BME280;2545;50.892;5.740;2023-05-17T04:57:35;56259.16;;;-142.21;100.00
5053;BME280;2545;50.892;5.740;2023-05-17T05:00:02;56253.28;;;-142.21;100.00
5053;BME280;2545;50.892;5.740;2023-05-17T05:02:30;56200.34;;;-142.21;100.00
5053;BME280;2545;50.892;5.740;2023-05-17T05:04:55;56180.72;;;-142.21;100.00
5053;BME280;2545;50.892;5.740;2023-05-17T05:07:20;56204.25;;;-142.21;100.00
5053;BME280;2545;50.892;5.740;2023-05-17T05:09:46;56192.50;;;-142.21;100.00
5053;BME280;2545;50.892;5.740;2023-05-17T05:12:11;56227.78;;;-142.21;100.00
5053;BME280;2545;50.892;5.740;2023-05-17T05:14:36;56180.72;;;-142.21;100.00
5053;BME280;2545;50.892;5.740;2023-05-17T05:17:01;56198.38;;;-142.21;100.00
5053;BME280;2545;50.892;5.740;2023-05-17T05:19:27;56221.91;;;-142.21;100.00
5053;BME280;2545;50.892;5.740;2023-05-17T05:21:52;56210.13;;;-142.21;100.00
5053;BME280;2545;50.892;5.740;2023-05-17T05:24:17;56217.97;;;-142.21;100.00
5053;BME280;2545;50.892;5.740;2023-05-17T05:26:43;56163.06;;;-142.21;100.00
5053;BME280;2545;50.892;5.740;2023-05-17T05:29:09;56212.09;;;-142.21;100.00
5053;BME280;2545;50.892;5.740;2023-05-17T05:31:35;56198.38;;;-142.21;100.00
5053;BME280;2545;50.892;5.740;2023-05-17T05:34:00;56212.09;;;-142.21;100.00
5053;BME280;2545;50.892;5.740;2023-05-17T05:36:25;56188.56;;;-142.21;100.00
5053;BME280;2545;50.892;5.740;2023-05-17T05:38:51;56206.22;;;-142.21;100.00
5053;BME280;2545;50.892;5.740;2023-05-17T05:41:18;56210.13;;;-142.21;100.00
5053;BME280;2545;50.892;5.740;2023-05-17T05:43:43;56208.16;;;-142.21;100.00
5053;BME280;2545;50.892;5.740;2023-05-17T05:46:09;56227.78;;;-142.21;100.00
5053;BME280;2545;50.892;5.740;2023-05-17T05:48:34;56180.72;;;-142.21;100.00
5053;BME280;2545;50.892;5.740;2023-05-17T05:51:03;56202.28;;;-142.21;100.00
5053;BME280;2545;50.892;5.740;2023-05-17T05:53:28;56180.72;;;-142.21;100.00
5053;BME280;2545;50.892;5.740;2023-05-17T05:55:54;56190.53;;;-142.21;100.00
5053;BME280;2545;50.892;5.740;2023-05-17T05:58:19;56225.81;;;-142.21;100.00
5053;BME280;2545;50.892;5.740;2023-05-17T06:00:45;56212.09;;;-142.21;100.00
5053;BME280;2545;50.892;5.740;2023-05-17T06:03:10;56180.72;;;-142.21;100.00
5053;BME280;2545;50.892;5.740;2023-05-17T06:05:35;56163.06;;;-142.21;100.00
5053;BME280;2545;50.892;5.740;2023-05-17T06:08:01;56192.50;;;-142.21;100.00
5053;BME280;2545;50.892;5.740;2023-05-17T06:10:26;56206.22;;;-142.21;100.00
5053;BME280;2545;50.892;5.740;2023-05-17T06:12:51;56212.09;;;-142.21;100.00
5053;BME280;2545;50.892;5.740;2023-05-17T06:15:17;56188.56;;;-142.21;100.00
5053;BME280;2545;50.892;5.740;2023-05-17T06:17:42;56202.28;;;-142.21;99.58
5053;BME280;2545;50.892;5.740;2023-05-17T06:20:08;56198.38;;;-142.21;100.00
5053;BME280;2545;50.892;5.740;2023-05-17T06:22:33;56182.69;;;-142.21;100.00
5053;BME280;2545;50.892;5.740;2023-05-17T06:24:58;56180.72;;;-142.21;100.00
5053;BME280;2545;50.892;5.740;2023-05-17T06:27:25;56167.00;;;-142.21;100.00
5053;BME280;2545;50.892;5.740;2023-05-17T06:29:50;56210.13;;;-142.21;98.76
5053;BME280;2545;50.892;5.740;2023-05-17T06:32:16;56174.84;;;-142.21;99.42
5053;BME280;2545;50.892;5.740;2023-05-17T06:34:41;56190.53;;;-142.21;97.75
5053;BME280;2545;50.892;5.740;2023-05-17T06:37:07;56192.50;;;-142.21;95.89
5053;BME280;2545;50.892;5.740;2023-05-17T06:39:32;56182.69;;;-142.21;96.13
5053;BME280;2545;50.892;5.740;2023-05-17T06:41:57;56163.06;;;-142.21;96.87
5053;BME280;2545;50.892;5.740;2023-05-17T06:44:23;56167.00;;;-142.21;98.76
5053;BME280;2545;50.892;5.740;2023-05-17T06:46:48;56192.50;;;-142.21;100.00
5053;BME280;2545;50.892;5.740;2023-05-17T06:49:13;56200.34;;;-142.21;100.00
5053;BME280;2545;50.892;5.740;2023-05-17T06:51:39;56176.78;;;-142.21;100.00
5053;BME280;2545;50.892;5.740;2023-05-17T06:54:04;56157.19;;;-142.21;100.00
5053;BME280;2545;50.892;5.740;2023-05-17T06:56:30;56210.13;;;-142.21;98.94
5053;BME280;2545;50.892;5.740;2023-05-17T06:58:55;56178.75;;;-142.21;98.03
5053;BME280;2545;50.892;5.740;2023-05-17T07:01:21;56217.97;;;-142.21;97.99
5053;BME280;2545;50.892;5.740;2023-05-17T07:03:46;56190.53;;;-142.21;97.84
5053;BME280;2545;50.892;5.740;2023-05-17T07:06:11;56198.38;;;-142.21;94.53
5053;BME280;2545;50.892;5.740;2023-05-17T07:08:37;56151.31;;;-142.21;90.77
5053;BME280;2545;50.892;5.740;2023-05-17T07:11:04;56198.38;;;-142.21;85.36
5053;BME280;2545;50.892;5.740;2023-05-17T07:13:29;56168.97;;;-142.21;81.81
5053;BME280;2545;50.892;5.740;2023-05-17T07:15:55;56178.75;;;-142.21;82.05
5053;BME280;2545;50.892;5.740;2023-05-17T07:18:20;56172.88;;;-142.21;79.79
5053;BME280;2545;50.892;5.740;2023-05-17T07:20:45;56188.56;;;-142.21;79.55
5053;BME280;2545;50.892;5.740;2023-05-17T07:23:11;56210.13;;;-142.21;80.99
5053;BME280;2545;50.892;5.740;2023-05-17T07:25:36;56210.13;;;-142.21;80.29
5053;BME280;2545;50.892;5.740;2023-05-17T07:28:04;56159.16;;;-142.21;77.41
5053;BME280;2545;50.892;5.740;2023-05-17T07:30:30;56200.34;;;-142.21;77.88
5053;BME280;2545;50.892;5.740;2023-05-17T07:32:55;56194.44;;;-142.21;77.15
5053;BME280;2545;50.892;5.740;2023-05-17T07:35:20;56159.16;;;-142.21;74.37
5053;BME280;2545;50.892;5.740;2023-05-17T07:37:45;56176.78;;;-142.21;74.42
5053;BME280;2545;50.892;5.740;2023-05-17T07:40:11;56143.47;;;-142.21;72.96
5053;BME280;2545;50.892;5.740;2023-05-17T07:42:37;56149.34;;;-142.21;70.63
5053;BME280;2545;50.892;5.740;2023-05-17T07:45:02;56143.47;;;-142.21;67.55
5053;BME280;2545;50.892;5.740;2023-05-17T07:47:28;56108.16;;;-142.21;68.79
5053;BME280;2545;50.892;5.740;2023-05-17T07:49:53;56178.75;;;-142.21;68.13
5053;BME280;2545;50.892;5.740;2023-05-17T07:52:19;56188.56;;;-142.21;67.74
5053;BME280;2545;50.892;5.740;2023-05-17T07:54:45;56147.38;;;-142.21;63.79
5053;BME280;2545;50.892;5.740;2023-05-17T07:57:10;56159.16;;;-142.21;61.44
5053;BME280;2545;50.892;5.740;2023-05-17T07:59:35;56174.84;;;-142.21;61.39
5053;BME280;2545;50.892;5.740;2023-05-17T08:02:01;56114.06;;;-142.21;60.15
5053;BME280;2545;50.892;5.740;2023-05-17T08:04:26;56151.31;;;-142.21;58.57
5053;BME280;2545;50.892;5.740;2023-05-17T08:06:51;56145.44;;;-142.21;59.54
5053;BME280;2545;50.892;5.740;2023-05-17T08:09:17;56151.31;;;-142.21;57.89
5053;BME280;2545;50.892;5.740;2023-05-17T08:11:44;56141.50;;;-142.21;54.42
5053;BME280;2545;50.892;5.740;2023-05-17T08:14:15;56117.97;;;-142.21;53.92
5053;BME280;2545;50.892;5.740;2023-05-17T08:16:42;56147.38;;;-142.21;54.22
5053;BME280;2545;50.892;5.740;2023-05-17T08:19:10;56121.91;;;-142.21;55.91
5053;BME280;2545;50.892;5.740;2023-05-17T08:21:40;56106.22;;;-142.21;55.86
5053;BME280;2545;50.892;5.740;2023-05-17T08:24:06;56129.75;;;-142.21;53.71
5053;BME280;2545;50.892;5.740;2023-05-17T08:26:31;56125.81;;;-142.21;55.46
5053;BME280;2545;50.892;5.740;2023-05-17T08:28:57;56123.84;;;-142.21;51.77
5053;BME280;2545;50.892;5.740;2023-05-17T08:31:22;56112.09;;;-142.21;49.40
5053;BME280;2545;50.892;5.740;2023-05-17T08:33:47;56135.63;;;-142.21;49.93
5053;BME280;2545;50.892;5.740;2023-05-17T08:36:13;56112.09;;;-142.21;48.61
5053;BME280;2545;50.892;5.740;2023-05-17T08:38:38;56127.78;;;-142.21;48.80
5053;BME280;2545;50.892;5.740;2023-05-17T08:41:03;56159.16;;;-142.21;49.05
5053;BME280;2545;50.892;5.740;2023-05-17T08:43:29;56139.53;;;-142.21;48.90
5053;BME280;2545;50.892;5.740;2023-05-17T08:45:57;56116.00;;;-142.21;47.83
5053;BME280;2545;50.892;5.740;2023-05-17T08:48:25;56102.28;;;-142.21;49.14
5053;BME280;2545;50.892;5.740;2023-05-17T08:50:52;56167.00;;;-142.21;49.83
5053;BME280;2545;50.892;5.740;2023-05-17T08:53:18;56116.00;;;-142.21;51.83
5053;BME280;2545;50.892;5.740;2023-05-17T08:55:45;56170.91;;;-142.21;52.89
5053;BME280;2545;50.892;5.740;2023-05-17T08:58:15;56098.38;;;-142.21;48.50
5053;BME280;2545;50.892;5.740;2023-05-17T09:00:43;56127.78;;;-142.21;47.96
5053;BME280;2545;50.892;5.740;2023-05-17T09:03:13;56161.13;;;-142.21;48.17
5053;BME280;2545;50.892;5.740;2023-05-17T09:05:41;56108.16;;;-142.21;49.23
5053;BME280;2545;50.892;5.740;2023-05-17T09:08:07;56121.91;;;-142.21;46.52
5053;BME280;2545;50.892;5.740;2023-05-17T09:10:32;56129.75;;;-142.21;48.21
5053;BME280;2545;50.892;5.740;2023-05-17T09:12:58;56096.41;;;-142.21;48.77
5053;BME280;2545;50.892;5.740;2023-05-17T09:15:23;56110.13;;;-142.21;45.16
5053;BME280;2545;50.892;5.740;2023-05-17T09:17:55;56082.69;;;-142.21;45.91
5053;BME280;2545;50.892;5.740;2023-05-17T09:20:22;56123.84;;;-142.21;44.57
5053;BME280;2545;50.892;5.740;2023-05-17T09:22:58;56131.69;;;-142.21;42.48
5053;BME280;2545;50.892;5.740;2023-05-17T09:25:24;56117.97;;;-142.21;43.62
5053;BME280;2545;50.892;5.740;2023-05-17T09:27:53;56125.81;;;-142.21;42.50
5053;BME280;2545;50.892;5.740;2023-05-17T09:30:18;56147.38;;;-142.21;41.42
5053;BME280;2545;50.892;5.740;2023-05-17T09:32:44;56165.03;;;-142.21;40.74
5053;BME280;2545;50.892;5.740;2023-05-17T09:35:10;56127.78;;;-142.21;41.47
5053;BME280;2545;50.892;5.740;2023-05-17T09:37:37;56092.47;;;-142.21;38.90
5053;BME280;2545;50.892;5.740;2023-05-17T09:40:03;56084.63;;;-142.21;39.86
5053;BME280;2545;50.892;5.740;2023-05-17T09:42:33;56086.59;;;-142.21;39.71
5053;BME280;2545;50.892;5.740;2023-05-17T09:45:00;56084.63;;;-142.21;39.82
5053;BME280;2545;50.892;5.740;2023-05-17T09:47:27;56088.56;;;-142.21;38.80
5053;BME280;2545;50.892;5.740;2023-05-17T09:49:55;56065.03;;;-142.21;38.74
5053;BME280;2545;50.892;5.740;2023-05-17T09:52:22;56096.41;;;-142.21;37.79
5053;BME280;2545;50.892;5.740;2023-05-17T09:54:55;56092.47;;;-142.21;37.72
5053;BME280;2545;50.892;5.740;2023-05-17T09:57:21;56137.59;;;-142.21;37.19
5053;BME280;2545;50.892;5.740;2023-05-17T09:59:47;56084.63;;;-142.21;37.54
5053;BME280;2545;50.892;5.740;2023-05-17T10:02:30;56127.78;;;-142.21;36.67
5053;BME280;2545;50.892;5.740;2023-05-17T10:04:57;56088.56;;;-142.21;35.97
5053;BME280;2545;50.892;5.740;2023-05-17T10:07:24;56125.81;;;-142.21;36.29
5053;BME280;2545;50.892;5.740;2023-05-17T10:09:50;56061.09;;;-142.21;36.81
5053;BME280;2545;50.892;5.740;2023-05-17T10:12:18;56078.75;;;-142.21;37.05
5053;BME280;2545;50.892;5.740;2023-05-17T10:14:45;56090.53;;;-142.21;37.01
5053;BME280;2545;50.892;5.740;2023-05-17T10:17:11;56110.13;;;-142.21;36.88
5053;BME280;2545;50.892;5.740;2023-05-17T10:19:37;56141.50;;;-142.21;37.75
5053;BME280;2545;50.892;5.740;2023-05-17T10:22:03;56072.88;;;-142.21;37.29
5053;BME280;2545;50.892;5.740;2023-05-17T10:24:30;56082.69;;;-142.21;35.70
5053;BME280;2545;50.892;5.740;2023-05-17T10:26:56;56039.53;;;-142.21;34.75
5053;BME280;2545;50.892;5.740;2023-05-17T10:29:23;56045.41;;;-142.21;34.34
5053;BME280;2545;50.892;5.740;2023-05-17T10:31:49;56080.72;;;-142.21;35.67
5053;BME280;2545;50.892;5.740;2023-05-17T10:34:15;56065.03;;;-142.21;35.28
5053;BME280;2545;50.892;5.740;2023-05-17T10:36:45;56041.50;;;-142.21;35.47
5053;BME280;2545;50.892;5.740;2023-05-17T10:39:12;56055.22;;;-142.21;33.06
5053;BME280;2545;50.892;5.740;2023-05-17T10:41:42;55976.78;;;-142.21;31.78
5053;BME280;2545;50.892;5.740;2023-05-17T10:44:11;55994.44;;;-142.21;31.41
5053;BME280;2545;50.892;5.740;2023-05-17T10:46:37;56039.53;;;-142.21;30.31
5053;BME280;2545;50.892;5.740;2023-05-17T10:49:03;55949.34;;;-142.21;28.64
5053;BME280;2545;50.892;5.740;2023-05-17T10:51:32;55992.47;;;-142.21;28.08
5053;BME280;2545;50.892;5.740;2023-05-17T10:54:08;55943.47;;;-142.21;28.01
5053;BME280;2545;50.892;5.740;2023-05-17T10:56:38;55986.59;;;-142.21;28.36
5053;BME280;2545;50.892;5.740;2023-05-17T11:04:42;56037.56;;;-142.21;29.61
5053;BME280;2545;50.892;5.740;2023-05-17T11:12:43;56047.38;;;-142.21;28.88
5053;BME280;2545;50.892;5.740;2023-05-17T11:15:12;55945.41;;;-142.21;28.11
5053;BME280;2545;50.892;5.740;2023-05-17T11:20:08;55955.22;;;-142.21;26.41
5053;BME280;2545;50.892;5.740;2023-05-17T11:22:37;56012.09;;;-142.21;27.42
5053;BME280;2545;50.892;5.740;2023-05-17T11:25:08;55959.16;;;-142.21;27.40
5053;BME280;2545;50.892;5.740;2023-05-17T11:27:36;55941.50;;;-142.21;26.25
5053;BME280;2545;50.892;5.740;2023-05-17T11:30:22;55941.50;;;-142.21;26.19
5053;BME280;2545;50.892;5.740;2023-05-17T11:32:58;55925.81;;;-142.21;25.43
5053;BME280;2545;50.892;5.740;2023-05-17T11:35:29;55939.53;;;-142.21;27.09
5053;BME280;2545;50.892;5.740;2023-05-17T11:38:22;55933.66;;;-142.21;26.77
5053;BME280;2545;50.892;5.740;2023-05-17T11:40:55;55953.25;;;-142.21;26.90
5053;BME280;2545;50.892;5.740;2023-05-17T11:43:23;55970.91;;;-142.21;25.87
5053;BME280;2545;50.892;5.740;2023-05-17T11:45:51;55980.72;;;-142.21;27.34
5053;BME280;2545;50.892;5.740;2023-05-17T11:48:19;55931.69;;;-142.21;26.44
5053;BME280;2545;50.892;5.740;2023-05-17T11:50:46;55916.00;;;-142.21;26.38
5053;BME280;2545;50.892;5.740;2023-05-17T11:53:12;55931.69;;;-142.21;25.32
5053;BME280;2545;50.892;5.740;2023-05-17T11:55:40;55939.53;;;-142.21;26.33
5053;BME280;2545;50.892;5.740;2023-05-17T11:58:11;55916.00;;;-142.21;25.66
5053;BME280;2545;50.892;5.740;2023-05-17T12:00:37;55927.78;;;-142.21;25.45
5053;BME280;2545;50.892;5.740;2023-05-17T12:03:24;55917.97;;;-142.21;25.39
5053;BME280;2545;50.892;5.740;2023-05-17T12:05:59;55939.53;;;-142.21;25.99
5053;BME280;2545;50.892;5.740;2023-05-17T12:08:26;55947.38;;;-142.21;26.00
5053;BME280;2545;50.892;5.740;2023-05-17T12:10:51;55908.16;;;-142.21;24.67
5053;BME280;2545;50.892;5.740;2023-05-17T12:13:17;55912.09;;;-142.21;24.93
5053;BME280;2545;50.892;5.740;2023-05-17T12:15:45;55927.78;;;-142.21;24.36
5053;BME280;2545;50.892;5.740;2023-05-17T12:18:11;55947.38;;;-142.21;24.60
5053;BME280;2545;50.892;5.740;2023-05-17T12:20:37;55917.97;;;-142.21;25.43
5053;BME280;2545;50.892;5.740;2023-05-17T12:23:03;55863.06;;;-142.21;24.38
5053;BME280;2545;50.892;5.740;2023-05-17T12:25:28;55904.25;;;-142.21;23.95
5053;BME280;2545;50.892;5.740;2023-05-17T12:28:17;55831.69;;;-142.21;24.37
5053;BME280;2545;50.892;5.740;2023-05-17T12:30:51;55853.28;;;-142.21;24.45
5053;BME280;2545;50.892;5.740;2023-05-17T12:33:17;55814.06;;;-142.21;23.39
5053;BME280;2545;50.892;5.740;2023-05-17T12:35:43;55878.75;;;-142.21;23.42
5053;BME280;2545;50.892;5.740;2023-05-17T12:38:09;55855.22;;;-142.21;23.17
5053;BME280;2545;50.892;5.740;2023-05-17T12:40:35;55825.81;;;-142.21;22.99
5053;BME280;2545;50.892;5.740;2023-05-17T12:43:04;55829.75;;;-142.21;23.25
5053;BME280;2545;50.892;5.740;2023-05-17T12:45:29;55839.53;;;-142.21;22.49
5053;BME280;2545;50.892;5.740;2023-05-17T12:47:55;55912.09;;;-142.21;24.49
5053;BME280;2545;50.892;5.740;2023-05-17T12:50:30;55945.41;;;-142.21;25.04
5053;BME280;2545;50.892;5.740;2023-05-17T12:52:56;55933.66;;;-142.21;25.40
5053;BME280;2545;50.892;5.740;2023-05-17T12:55:21;55923.84;;;-142.21;24.92
5053;BME280;2545;50.892;5.740;2023-05-17T12:57:49;55906.22;;;-142.21;24.72
5053;BME280;2545;50.892;5.740;2023-05-17T13:00:15;55847.38;;;-142.21;23.81
5053;BME280;2545;50.892;5.740;2023-05-17T13:02:40;55876.78;;;-142.21;23.84
5053;BME280;2545;50.892;5.740;2023-05-17T13:05:18;55855.22;;;-142.21;22.69
5053;BME280;2545;50.892;5.740;2023-05-17T13:07:46;55908.16;;;-142.21;24.08
5053;BME280;2545;50.892;5.740;2023-05-17T13:10:25;55872.88;;;-142.21;24.79
5053;BME280;2545;50.892;5.740;2023-05-17T13:12:58;55898.38;;;-142.21;23.40